(°C)
15°
14°
14°
15°
15°
15°
16°
(°C)
12°
12°
12°
13°
13°
14°
14°
ЗЮЗ
ЮЗ
ЮЗ
ЮЮЗ
ЮЮЗ
ЮЗ
ЮЗ
(км/ч)
17-29
14-27
13-24
13-25
14-26
14-27
15-26
(мм)
3
3
0
0
1.9
1.6
0
(%)
62
38
33
49
66
65
48

Высота солнцестояния

/ 7.4°
sun-icon
UV 2
04:09
21:41
Растущая луна (107°)
14:10
01:45

METAR для 55.31°С 61.5°В (USCC)

Время Условия Температура/
Точка росы
Ветер Видимость Погода Облачность Давление Изменить Необработанный
MVFR 15°C / 13°C 260º 6kt 5000m Light Showers Rain 3.00mm precipitation Vertical Visibility of 0ft. 1015 No Significant change. Runway 27: Wet or puddles, 51-100% contamination with <1mm, friction coefficient 0.55. USCC 191500Z 26003MPS 5000 -SHRA BKN040CB 15/13 Q1015 R27/290055 NOSIG RMK QFE741
MVFR 15°C / 11°C 280º 12kt 5000m Light Showers Rain 3.00mm precipitation Vertical Visibility of 0ft. 1015 No Significant change USCC 191430Z 28006MPS 5000 -SHRA BKN040CB 15/11 Q1015 R27/000060 NOSIG RMK QFE741
VFR 17°C / 10°C 280º 10kt >10km - Broken Clouds 4000ft 1015 No Significant change USCC 191400Z 28005MPS 9999 BKN040CB 17/10 Q1015 R27/000060 NOSIG RMK QFE741
VFR 17°C / 9°C 280º 16kt >10km - Scattered Clouds 4000ft 1016 No Significant change USCC 191330Z 28008MPS 9999 SCT040CB 17/09 Q1016 R27/000060 NOSIG RMK QFE742
VFR 17°C / 10°C 280º 16kt >10km - Scattered Clouds 4000ft 1016 No Significant change USCC 191300Z 28008MPS 9999 SCT040CB 17/10 Q1016 R27/000060 NOSIG RMK QFE742
VFR 18°C / 10°C 280º 14kt >10km Light Showers Rain 3.00mm precipitation Vertical Visibility of 0ft. 1016 No Significant change USCC 191230Z 28007MPS 9999 -SHRA SCT040CB 18/10 Q1016 R27/000060 NOSIG RMK QFE742
VFR 17°C / 10°C 290º 19kt >10km - Scattered Clouds 4000ft 1016 No Significant change USCC 191200Z 29010MPS 9999 SCT040CB 17/10 Q1016 R27/000060 NOSIG RMK QFE742
VFR 18°C / 10°C 290º 21kt >10km Light Showers Rain 3.00mm precipitation Vertical Visibility of 0ft. 1017 No Significant change USCC 191130Z 29011MPS 9999 -SHRA SCT040CB 18/10 Q1017 R27/000060 NOSIG RMK QFE743
VFR 19°C / 9°C 280º 17kt Gust 29kt >10km Light Showers Rain 3.00mm precipitation Vertical Visibility of 0ft. 1017 No Significant change USCC 191100Z 28009G15MPS 9999 -SHRA SCT040CB 19/09 Q1017 R27/000060 NOSIG RMK QFE743
VFR 20°C / 9°C 290º 19kt Gust 31kt >10km - Scattered Clouds 4000ft 1017 No Significant change USCC 191030Z 29010G16MPS 9999 SCT040CB 20/09 Q1017 R27/000060 NOSIG RMK QFE742
VFR 20°C / 9°C 290º 21kt Gust 31kt >10km - Scattered Clouds 4000ft 1017 No Significant change USCC 191000Z 29011G16MPS 9999 SCT040CB 20/09 Q1017 R27/000060 NOSIG RMK QFE742
VFR 20°C / 9°C 280º 19kt Gust 29kt >10km - Scattered Clouds 4000ft 1017 No Significant change USCC 190930Z 28010G15MPS 9999 SCT040CB 20/09 Q1017 R27/000060 NOSIG RMK QFE743
VFR 20°C / 9°C 290º 14kt >10km - Scattered Clouds 4000ft 1017 No Significant change USCC 190900Z 29007MPS 9999 SCT040CB 20/09 Q1017 R27/000060 NOSIG RMK QFE743
VFR 17°C / 8°C 280º 12kt >10km - Scattered Clouds 4000ft 1018 No Significant change USCC 190830Z 28006MPS 9999 SCT040CB 17/08 Q1018 R27/000060 NOSIG RMK QFE743
VFR 18°C / 7°C 290º 14kt Gust 23kt >10km - Scattered Clouds 4000ft 1018 No Significant change USCC 190800Z 29007G12MPS 9999 SCT040CB 18/07 Q1018 R27/000060 NOSIG RMK QFE743
VFR 17°C / 6°C 300º 16kt Gust 27kt >10km - Scattered Clouds 4000ft 1018 No Significant change USCC 190730Z 30008G14MPS 9999 SCT040CB 17/06 Q1018 R27/000060 NOSIG RMK QFE744
VFR 18°C / 6°C 290º 16kt Gust 25kt >10km - Scattered Clouds 4000ft 1019 No Significant change USCC 190700Z 29008G13MPS 9999 SCT040CB 18/06 Q1019 R27/000060 NOSIG RMK QFE744
VFR 17°C / 6°C 280º 14kt >10km - Scattered Clouds 4000ft 1019 No Significant change USCC 190630Z 28007MPS 9999 SCT040CB 17/06 Q1019 R27/000060 NOSIG RMK QFE744
VFR 16°C / 5°C 280º 12kt >10km - Scattered Clouds 4000ft 1019 No Significant change USCC 190600Z 28006MPS 9999 SCT040CB 16/05 Q1019 R27/000060 NOSIG RMK QFE744
VFR 16°C / 5°C 280º 14kt >10km - Scattered Clouds 4000ft 1020 No Significant change USCC 190530Z 28007MPS 9999 SCT040CB 16/05 Q1020 R27/000060 NOSIG RMK QFE744
VFR 16°C / 4°C 290º 10kt >10km - Scattered Clouds 4000ft 1020 No Significant change USCC 190500Z 29005MPS 9999 SCT040CB 16/04 Q1020 R27/000060 NOSIG RMK QFE745
VFR 17°C / 4°C 300º 10kt >10km - Few Clouds 4000ft 1020 No Significant change USCC 190430Z 30005MPS 9999 FEW040CB 17/04 Q1020 R27/000060 NOSIG RMK QFE745
VFR 16°C / 4°C 290º 10kt >10km - Clouds and Visibility OK 1020 No Significant change USCC 190400Z 29005MPS CAVOK 16/04 Q1020 R27/000060 NOSIG RMK QFE745
VFR 16°C / 4°C 290º 8kt >10km - Clouds and Visibility OK 1020 No Significant change USCC 190330Z 29004MPS CAVOK 16/04 Q1020 R27/000060 NOSIG RMK QFE745

MVFR

15°C / 13°C

[Больше]
Ветер 260º 6kt
Видимость 5000m
Погода Light Showers Rain 3.00mm precipitation
Облачность Vertical Visibility of 0ft.
Давление 1015
Изменить No Significant change. Runway 27: Wet or puddles, 51-100% contamination with <1mm, friction coefficient 0.55.
Необработанный USCC 191500Z 26003MPS 5000 -SHRA BKN040CB 15/13 Q1015 R27/290055 NOSIG RMK QFE741

MVFR

15°C / 11°C

[Больше]
Ветер 280º 12kt
Видимость 5000m
Погода Light Showers Rain 3.00mm precipitation
Облачность Vertical Visibility of 0ft.
Давление 1015
Изменить No Significant change
Необработанный USCC 191430Z 28006MPS 5000 -SHRA BKN040CB 15/11 Q1015 R27/000060 NOSIG RMK QFE741

VFR

17°C / 10°C

[Больше]
Ветер 280º 10kt
Видимость >10km
Погода -
Облачность Broken Clouds 4000ft
Давление 1015
Изменить No Significant change
Необработанный USCC 191400Z 28005MPS 9999 BKN040CB 17/10 Q1015 R27/000060 NOSIG RMK QFE741

VFR

17°C / 9°C

[Больше]
Ветер 280º 16kt
Видимость >10km
Погода -
Облачность Scattered Clouds 4000ft
Давление 1016
Изменить No Significant change
Необработанный USCC 191330Z 28008MPS 9999 SCT040CB 17/09 Q1016 R27/000060 NOSIG RMK QFE742

VFR

17°C / 10°C

[Больше]
Ветер 280º 16kt
Видимость >10km
Погода -
Облачность Scattered Clouds 4000ft
Давление 1016
Изменить No Significant change
Необработанный USCC 191300Z 28008MPS 9999 SCT040CB 17/10 Q1016 R27/000060 NOSIG RMK QFE742

VFR

18°C / 10°C

[Больше]
Ветер 280º 14kt
Видимость >10km
Погода Light Showers Rain 3.00mm precipitation
Облачность Vertical Visibility of 0ft.
Давление 1016
Изменить No Significant change
Необработанный USCC 191230Z 28007MPS 9999 -SHRA SCT040CB 18/10 Q1016 R27/000060 NOSIG RMK QFE742

VFR

17°C / 10°C

[Больше]
Ветер 290º 19kt
Видимость >10km
Погода -
Облачность Scattered Clouds 4000ft
Давление 1016
Изменить No Significant change
Необработанный USCC 191200Z 29010MPS 9999 SCT040CB 17/10 Q1016 R27/000060 NOSIG RMK QFE742

VFR

18°C / 10°C

[Больше]
Ветер 290º 21kt
Видимость >10km
Погода Light Showers Rain 3.00mm precipitation
Облачность Vertical Visibility of 0ft.
Давление 1017
Изменить No Significant change
Необработанный USCC 191130Z 29011MPS 9999 -SHRA SCT040CB 18/10 Q1017 R27/000060 NOSIG RMK QFE743

VFR

19°C / 9°C

[Больше]
Ветер 280º 17kt Gust 29kt
Видимость >10km
Погода Light Showers Rain 3.00mm precipitation
Облачность Vertical Visibility of 0ft.
Давление 1017
Изменить No Significant change
Необработанный USCC 191100Z 28009G15MPS 9999 -SHRA SCT040CB 19/09 Q1017 R27/000060 NOSIG RMK QFE743

VFR

20°C / 9°C

[Больше]
Ветер 290º 19kt Gust 31kt
Видимость >10km
Погода -
Облачность Scattered Clouds 4000ft
Давление 1017
Изменить No Significant change
Необработанный USCC 191030Z 29010G16MPS 9999 SCT040CB 20/09 Q1017 R27/000060 NOSIG RMK QFE742

VFR

20°C / 9°C

[Больше]
Ветер 290º 21kt Gust 31kt
Видимость >10km
Погода -
Облачность Scattered Clouds 4000ft
Давление 1017
Изменить No Significant change
Необработанный USCC 191000Z 29011G16MPS 9999 SCT040CB 20/09 Q1017 R27/000060 NOSIG RMK QFE742

VFR

20°C / 9°C

[Больше]
Ветер 280º 19kt Gust 29kt
Видимость >10km
Погода -
Облачность Scattered Clouds 4000ft
Давление 1017
Изменить No Significant change
Необработанный USCC 190930Z 28010G15MPS 9999 SCT040CB 20/09 Q1017 R27/000060 NOSIG RMK QFE743

VFR

20°C / 9°C

[Больше]
Ветер 290º 14kt
Видимость >10km
Погода -
Облачность Scattered Clouds 4000ft
Давление 1017
Изменить No Significant change
Необработанный USCC 190900Z 29007MPS 9999 SCT040CB 20/09 Q1017 R27/000060 NOSIG RMK QFE743

VFR

17°C / 8°C

[Больше]
Ветер 280º 12kt
Видимость >10km
Погода -
Облачность Scattered Clouds 4000ft
Давление 1018
Изменить No Significant change
Необработанный USCC 190830Z 28006MPS 9999 SCT040CB 17/08 Q1018 R27/000060 NOSIG RMK QFE743

VFR

18°C / 7°C

[Больше]
Ветер 290º 14kt Gust 23kt
Видимость >10km
Погода -
Облачность Scattered Clouds 4000ft
Давление 1018
Изменить No Significant change
Необработанный USCC 190800Z 29007G12MPS 9999 SCT040CB 18/07 Q1018 R27/000060 NOSIG RMK QFE743

VFR

17°C / 6°C

[Больше]
Ветер 300º 16kt Gust 27kt
Видимость >10km
Погода -
Облачность Scattered Clouds 4000ft
Давление 1018
Изменить No Significant change
Необработанный USCC 190730Z 30008G14MPS 9999 SCT040CB 17/06 Q1018 R27/000060 NOSIG RMK QFE744

VFR

18°C / 6°C

[Больше]
Ветер 290º 16kt Gust 25kt
Видимость >10km
Погода -
Облачность Scattered Clouds 4000ft
Давление 1019
Изменить No Significant change
Необработанный USCC 190700Z 29008G13MPS 9999 SCT040CB 18/06 Q1019 R27/000060 NOSIG RMK QFE744

VFR

17°C / 6°C

[Больше]
Ветер 280º 14kt
Видимость >10km
Погода -
Облачность Scattered Clouds 4000ft
Давление 1019
Изменить No Significant change
Необработанный USCC 190630Z 28007MPS 9999 SCT040CB 17/06 Q1019 R27/000060 NOSIG RMK QFE744

VFR

16°C / 5°C

[Больше]
Ветер 280º 12kt
Видимость >10km
Погода -
Облачность Scattered Clouds 4000ft
Давление 1019
Изменить No Significant change
Необработанный USCC 190600Z 28006MPS 9999 SCT040CB 16/05 Q1019 R27/000060 NOSIG RMK QFE744

VFR

16°C / 5°C

[Больше]
Ветер 280º 14kt
Видимость >10km
Погода -
Облачность Scattered Clouds 4000ft
Давление 1020
Изменить No Significant change
Необработанный USCC 190530Z 28007MPS 9999 SCT040CB 16/05 Q1020 R27/000060 NOSIG RMK QFE744

VFR

16°C / 4°C

[Больше]
Ветер 290º 10kt
Видимость >10km
Погода -
Облачность Scattered Clouds 4000ft
Давление 1020
Изменить No Significant change
Необработанный USCC 190500Z 29005MPS 9999 SCT040CB 16/04 Q1020 R27/000060 NOSIG RMK QFE745

VFR

17°C / 4°C

[Больше]
Ветер 300º 10kt
Видимость >10km
Погода -
Облачность Few Clouds 4000ft
Давление 1020
Изменить No Significant change
Необработанный USCC 190430Z 30005MPS 9999 FEW040CB 17/04 Q1020 R27/000060 NOSIG RMK QFE745

VFR

16°C / 4°C

[Больше]
Ветер 290º 10kt
Видимость >10km
Погода -
Облачность Clouds and Visibility OK
Давление 1020
Изменить No Significant change
Необработанный USCC 190400Z 29005MPS CAVOK 16/04 Q1020 R27/000060 NOSIG RMK QFE745

VFR

16°C / 4°C

[Больше]
Ветер 290º 8kt
Видимость >10km
Погода -
Облачность Clouds and Visibility OK
Давление 1020
Изменить No Significant change
Необработанный USCC 190330Z 29004MPS CAVOK 16/04 Q1020 R27/000060 NOSIG RMK QFE745

TAF для 55.31°С 61.5°В (USCC)

From till


From till Wind 290º 10kt. Gust 25kt. Visibility 10km or more. Broken Clouds 2000ft.
Temporarly from till Wind 270º 14kt. Gust 35kt. Visibility 6000m. Light Showers Rain . Broken Clouds 1600ft.

Необработанный: TAF USCC 191400Z 1915/2015 29005G13MPS 9999 BKN020CB TEMPO 1915/2015 27007G18MPS 6000 -SHRA BKN016CB

rainNOW

0.0 мм
0.0 мм
0.0 мм
0.0 мм
0.0 мм
0.0 мм
0.0 мм
0.0 мм
0.0 мм
0.0 мм
0.0 мм
0.0 мм

Текущие спутниковые изображения и снимки дождя для 55.31°С 61.5°В

Указатель местности находится на 55.31°С 61.5°В. [Больше]

Спутниковое изображение в реальном времени сочетает в себе видимый свет в дневное время с инфракрасным излучением в ночное время. Ночью изображение получается не темным, так как инфракрасное излучение может обнаружить разницу температур. К сожалению, низкие облака и туман трудно отличить от температуры у поверхности земли и поэтому могут быть почти незаметны ночью. Спутниковые снимки Meteosat для Европы обновляются каждые 5 минут в режиме реального времени.Снимки GOES-16/GOES-17 (Северная и Южная Америка) и Химавари (Азия) обновляются каждые 10 минут.

Копирайт 2021 EUMETSAT / meteoblue. / Копирайт 2021 meteoblue

Радарный и сверхкраткосрочный прогноз осадков для 55.31°С 61.5°В

Индикатор местности находится на 55.31°С 61.5°В. Анимация показывает радар осадков за последний час, а также прогноз погоды для1h. Умеренная морось или легкий снег могут быть незаметны для радара. Интенсивность осадковмаркированна цветной кодировкой, начиная со светло-синего и заканчивая темно-пурпурным.